createdAt,value
2019-04-19T00:00:49.881Z,10.48
2019-04-19T00:03:22.497Z,10.46
2019-04-19T00:06:21.444Z,10.42
2019-04-19T00:09:06.442Z,10.46
2019-04-19T00:11:30.704Z,10.45
2019-04-19T00:13:53.543Z,10.35
2019-04-19T00:16:24.290Z,10.35
2019-04-19T00:19:21.158Z,10.27
2019-04-19T00:21:55.977Z,10.19
2019-04-19T00:24:01.872Z,10.17
2019-04-19T00:26:33.739Z,10.13
2019-04-19T00:29:07.670Z,10.05
2019-04-19T00:31:45.162Z,9.91
2019-04-19T00:34:10.304Z,9.98
2019-04-19T00:36:40.491Z,9.97
2019-04-19T00:40:06.247Z,9.94
2019-04-19T00:42:59.118Z,9.90
2019-04-19T00:45:49.502Z,9.76
2019-04-19T00:48:24.620Z,9.68
2019-04-19T00:50:54.162Z,9.77
2019-04-19T00:53:24.343Z,9.79
2019-04-19T00:55:55.443Z,9.79
2019-04-19T00:58:22.617Z,9.75
2019-04-19T01:00:49.090Z,9.75
2019-04-19T01:03:27.429Z,9.76
2019-04-19T01:05:59.084Z,9.62
2019-04-19T01:08:26.045Z,9.52
2019-04-19T01:11:12.696Z,9.52
2019-04-19T01:13:47.633Z,9.57
2019-04-19T01:16:13.195Z,9.55
2019-04-19T01:18:45.509Z,9.47
2019-04-19T01:21:09.139Z,9.47
2019-04-19T01:23:45.707Z,9.51
2019-04-19T01:26:14.901Z,9.45
2019-04-19T01:28:51.202Z,9.31
2019-04-19T01:31:21.251Z,9.31
2019-04-19T01:33:49.176Z,9.33
2019-04-19T01:36:28.752Z,9.31
2019-04-19T01:39:11.934Z,9.24
2019-04-19T01:41:37.312Z,9.22
2019-04-19T01:44:24.104Z,9.24
2019-04-19T01:47:00.719Z,9.08
2019-04-19T01:49:58.836Z,9.05
2019-04-19T01:52:45.116Z,9.10
2019-04-19T01:55:05.870Z,9.03
2019-04-19T01:57:28.321Z,8.99
2019-04-19T02:00:03.873Z,8.98
2019-04-19T02:02:36.741Z,8.88
2019-04-19T02:05:12.318Z,8.95
2019-04-19T02:07:40.493Z,8.89
2019-04-19T02:11:37.686Z,8.78
2019-04-19T02:14:03.662Z,8.76
2019-04-19T02:16:30.253Z,8.78
2019-04-19T02:19:06.322Z,8.72
2019-04-19T02:21:38.076Z,8.64
2019-04-19T02:24:08.617Z,8.69
2019-04-19T02:26:50.086Z,8.63
2019-04-19T02:29:19.063Z,8.53
2019-04-19T02:34:39.324Z,8.55
2019-04-19T02:37:16.420Z,8.54
2019-04-19T02:42:37.015Z,8.54
2019-04-19T02:49:59.484Z,8.35
2019-04-19T02:55:12.192Z,8.46
2019-04-19T02:58:38.392Z,8.44
2019-04-19T03:01:18.751Z,8.32
2019-04-19T03:03:34.232Z,8.28
2019-04-19T03:06:04.032Z,8.17
2019-04-19T03:08:18.905Z,8.20
2019-04-19T03:11:04.414Z,8.13
2019-04-19T03:13:36.832Z,8.15
2019-04-19T03:16:10.116Z,8.12
2019-04-19T03:18:45.472Z,8.15
2019-04-19T03:21:26.644Z,8.12
2019-04-19T03:23:55.539Z,8.00
2019-04-19T03:26:26.754Z,7.95
2019-04-19T03:28:48.555Z,7.90
2019-04-19T03:31:49.354Z,7.88
2019-04-19T03:34:16.264Z,7.87
2019-04-19T03:36:39.096Z,7.83
2019-04-19T03:39:17.933Z,7.85
2019-04-19T03:42:03.137Z,7.81
2019-04-19T03:44:36.029Z,7.75
2019-04-19T03:47:18.243Z,7.73
2019-04-19T03:49:45.174Z,7.72
2019-04-19T03:52:20.140Z,7.65
2019-04-19T03:54:43.982Z,7.64
2019-04-19T03:57:18.763Z,7.51
2019-04-19T03:59:35.581Z,7.56
2019-04-19T04:02:07.877Z,7.59
2019-04-19T04:04:38.842Z,7.65
2019-04-19T04:07:17.487Z,7.65
2019-04-19T04:10:04.505Z,7.61
2019-04-19T04:13:07.075Z,7.57
2019-04-19T04:15:56.913Z,7.45
2019-04-19T04:18:17.817Z,7.50
2019-04-19T04:20:52.649Z,7.50
2019-04-19T04:23:28.119Z,7.48
2019-04-19T04:26:01.063Z,7.47
2019-04-19T04:28:41.600Z,7.49
2019-04-19T04:31:11.063Z,7.49
2019-04-19T04:33:42.599Z,7.40
2019-04-19T04:36:25.354Z,7.41
2019-04-19T04:38:39.880Z,7.44
2019-04-19T04:41:15.571Z,7.42
2019-04-19T04:43:53.994Z,7.35
2019-04-19T04:46:57.693Z,7.40
2019-04-19T04:49:54.029Z,7.35
2019-04-19T04:52:32.156Z,7.31
2019-04-19T04:55:07.543Z,7.25
2019-04-19T04:57:50.570Z,7.33
2019-04-19T05:00:16.030Z,7.34
2019-04-19T05:03:09.259Z,7.34
2019-04-19T05:05:43.266Z,7.37
2019-04-19T05:08:25.570Z,7.33
2019-04-19T05:11:03.063Z,7.34
2019-04-19T05:13:39.551Z,7.26
2019-04-19T05:16:16.109Z,7.26
2019-04-19T05:18:40.137Z,7.28
2019-04-19T05:21:18.081Z,7.25
2019-04-19T05:23:59.679Z,7.29
2019-04-19T05:28:55.613Z,7.47
2019-04-19T05:31:22.685Z,7.55
2019-04-19T05:34:09.786Z,7.62
2019-04-19T05:36:38.620Z,7.64
2019-04-19T05:39:17.224Z,7.66
2019-04-19T05:42:03.973Z,7.71
2019-04-19T05:44:55.285Z,7.74
2019-04-19T05:47:20.670Z,7.80
2019-04-19T05:49:52.013Z,7.83
2019-04-19T05:52:23.276Z,7.87
2019-04-19T05:54:39.014Z,7.93
2019-04-19T05:57:33.160Z,7.91
2019-04-19T05:59:51.984Z,7.93
2019-04-19T06:02:26.229Z,7.98
2019-04-19T06:05:13.034Z,8.04
2019-04-19T06:07:37.374Z,8.12
2019-04-19T06:09:54.050Z,8.13
2019-04-19T06:12:28.788Z,8.19
2019-04-19T06:15:19.072Z,8.21
2019-04-19T06:18:05.301Z,8.27
2019-04-19T06:20:39.774Z,8.32
2019-04-19T06:23:12.462Z,8.43
2019-04-19T06:26:09.116Z,8.49
2019-04-19T06:30:50.775Z,8.61
2019-04-19T06:33:26.652Z,8.68
2019-04-19T06:35:48.516Z,8.72
2019-04-19T06:38:11.883Z,8.80
2019-04-19T06:40:52.440Z,8.87
2019-04-19T06:43:30.533Z,9.00
2019-04-19T06:46:02.246Z,9.12
2019-04-19T06:48:26.661Z,9.23
2019-04-19T06:50:57.405Z,9.36
2019-04-19T06:53:35.798Z,9.51
2019-04-19T06:56:05.872Z,9.70
2019-04-19T06:58:40.345Z,9.86
2019-04-19T07:01:16.704Z,10.02
2019-04-19T07:03:39.039Z,10.18
2019-04-19T07:06:27.071Z,10.36
2019-04-19T07:09:09.040Z,10.54
2019-04-19T07:11:39.471Z,10.74
2019-04-19T07:13:58.410Z,10.89
2019-04-19T07:16:39.438Z,11.02
2019-04-19T07:19:14.208Z,11.17
2019-04-19T07:21:44.079Z,11.31
2019-04-19T07:24:29.508Z,11.43
2019-04-19T07:26:59.350Z,11.51
2019-04-19T07:29:10.846Z,11.60
2019-04-19T07:31:42.735Z,11.74
2019-04-19T07:34:32.524Z,11.88
2019-04-19T07:37:02.079Z,11.99
2019-04-19T07:39:37.790Z,12.07
2019-04-19T07:42:12.390Z,12.15
2019-04-19T07:44:46.085Z,12.21
2019-04-19T07:47:27.765Z,12.29
2019-04-19T07:49:59.186Z,12.37
2019-04-19T07:52:24.877Z,12.44
2019-04-19T07:54:57.784Z,12.50
2019-04-19T08:00:33.437Z,12.63
2019-04-19T08:05:26.559Z,12.73
2019-04-19T08:13:13.399Z,12.94
2019-04-19T08:15:44.316Z,12.99
2019-04-19T08:28:12.916Z,13.34
2019-04-19T08:30:37.819Z,13.45
2019-04-19T08:33:02.447Z,13.48
2019-04-19T08:35:42.242Z,13.53
2019-04-19T08:38:17.479Z,13.58
2019-04-19T08:40:57.891Z,13.64
2019-04-19T08:43:31.898Z,13.68
2019-04-19T08:46:00.794Z,13.75
2019-04-19T08:48:58.616Z,13.95
2019-04-19T08:51:50.624Z,14.02
2019-04-19T08:54:41.111Z,14.05
2019-04-19T08:57:04.318Z,14.17
2019-04-19T08:59:50.746Z,14.19
2019-04-19T09:02:16.014Z,14.23
2019-04-19T09:04:56.315Z,14.35
2019-04-19T09:07:43.822Z,14.45
2019-04-19T09:10:18.411Z,14.52
2019-04-19T09:12:31.243Z,14.64
2019-04-19T09:15:08.739Z,14.64
2019-04-19T09:17:56.140Z,14.70
2019-04-19T09:20:25.450Z,14.79
2019-04-19T09:22:56.986Z,14.90
2019-04-19T09:25:31.564Z,14.91
2019-04-19T09:28:19.580Z,15.01
2019-04-19T09:30:40.956Z,15.09
2019-04-19T09:33:01.140Z,15.13
2019-04-19T09:35:39.936Z,15.18
2019-04-19T09:38:17.299Z,15.31
2019-04-19T09:40:46.790Z,15.48
2019-04-19T09:43:24.142Z,15.58
2019-04-19T09:45:42.945Z,15.70
2019-04-19T09:48:31.714Z,15.80
2019-04-19T09:50:58.975Z,15.88
2019-04-19T09:56:13.214Z,15.95
2019-04-19T09:58:44.285Z,16.04
2019-04-19T10:01:08.962Z,16.02
2019-04-19T10:03:47.745Z,16.07
2019-04-19T10:06:15.222Z,16.13
2019-04-19T10:08:45.830Z,16.20
2019-04-19T10:11:16.939Z,16.22
2019-04-19T10:13:48.046Z,16.32
2019-04-19T10:16:37.639Z,16.36
2019-04-19T10:19:11.115Z,16.46
2019-04-19T10:21:53.990Z,16.51
2019-04-19T10:24:25.889Z,16.57
2019-04-19T10:27:19.178Z,16.59
2019-04-19T10:29:51.178Z,16.63
2019-04-19T10:32:30.818Z,16.77
2019-04-19T10:35:01.997Z,16.84
2019-04-19T10:37:33.615Z,16.85
2019-04-19T10:40:07.856Z,16.86
2019-04-19T10:42:38.977Z,16.90
2019-04-19T10:45:12.221Z,16.98
2019-04-19T10:47:44.108Z,17.11
2019-04-19T10:50:28.176Z,17.16
2019-04-19T10:52:47.912Z,17.17
2019-04-19T10:55:20.823Z,17.15
2019-04-19T10:57:51.442Z,17.16
2019-04-19T11:00:22.363Z,17.23
2019-04-19T11:02:56.967Z,17.29
2019-04-19T11:05:29.975Z,17.33
2019-04-19T11:08:01.315Z,17.47
2019-04-19T11:10:35.686Z,17.55
2019-04-19T11:13:06.360Z,17.60
2019-04-19T11:15:38.311Z,17.59
2019-04-19T11:18:09.778Z,17.69
2019-04-19T11:20:47.300Z,17.75
2019-04-19T11:23:13.603Z,17.84
2019-04-19T11:25:46.128Z,17.91
2019-04-19T11:28:16.546Z,17.97
2019-04-19T11:31:06.776Z,18.00
2019-04-19T11:33:37.450Z,18.12
2019-04-19T11:36:08.017Z,18.16
2019-04-19T11:38:38.844Z,18.13
2019-04-19T11:41:09.468Z,18.23
2019-04-19T11:43:40.098Z,18.26
2019-04-19T11:46:11.711Z,18.28
2019-04-19T11:48:43.643Z,18.31
2019-04-19T11:51:14.227Z,18.41
2019-04-19T11:53:47.507Z,18.48
2019-04-19T11:56:46.394Z,18.56
2019-04-19T11:59:37.146Z,18.58
2019-04-19T12:02:04.525Z,18.60
2019-04-19T12:04:36.324Z,18.67
2019-04-19T12:07:08.161Z,18.72
2019-04-19T12:09:38.750Z,18.88
2019-04-19T12:12:09.495Z,19.01
2019-04-19T12:14:40.051Z,19.01
2019-04-19T12:17:11.096Z,19.06
2019-04-19T12:19:49.678Z,19.08
2019-04-19T12:22:14.914Z,19.14
2019-04-19T12:24:46.744Z,19.13
2019-04-19T12:27:18.003Z,19.25
2019-04-19T12:29:51.505Z,19.23
2019-04-19T12:32:25.490Z,19.29
2019-04-19T12:34:55.033Z,19.37
2019-04-19T12:37:26.924Z,19.46
2019-04-19T12:39:57.557Z,19.47
2019-04-19T12:42:33.910Z,19.55
2019-04-19T12:45:06.017Z,19.58
2019-04-19T12:47:38.115Z,19.61
2019-04-19T12:50:12.982Z,19.64
2019-04-19T12:52:44.139Z,19.69
2019-04-19T12:55:15.487Z,19.83
2019-04-19T12:57:54.687Z,19.85
2019-04-19T13:00:28.213Z,19.92
2019-04-19T13:03:02.530Z,19.94
2019-04-19T13:05:39.375Z,20.05
2019-04-19T13:08:11.384Z,20.14
2019-04-19T13:10:42.952Z,20.15
2019-04-19T13:13:13.991Z,20.26
2019-04-19T13:15:44.641Z,20.38
2019-04-19T13:18:16.170Z,20.35
2019-04-19T13:20:48.371Z,20.39
2019-04-19T13:23:20.060Z,20.44
2019-04-19T13:25:51.207Z,20.45
2019-04-19T13:28:21.767Z,20.56
2019-04-19T13:30:57.316Z,20.63
2019-04-19T13:33:26.399Z,20.68
2019-04-19T13:35:59.272Z,20.82
2019-04-19T13:38:35.434Z,20.98
2019-04-19T13:41:25.007Z,21.31
2019-04-19T13:43:56.513Z,21.73
2019-04-19T13:46:27.114Z,22.18
2019-04-19T13:48:58.834Z,22.58
2019-04-19T13:51:30.296Z,22.79
2019-04-19T13:54:00.938Z,22.84
2019-04-19T13:56:33.975Z,22.82
2019-04-19T13:59:05.628Z,22.70
2019-04-19T14:01:36.594Z,22.69
2019-04-19T14:04:08.748Z,22.66
2019-04-19T14:06:40.294Z,22.65
2019-04-19T14:09:16.144Z,22.50
2019-04-19T14:11:47.562Z,22.58
2019-04-19T14:14:18.503Z,22.62
2019-04-19T14:16:53.952Z,22.72
2019-04-19T14:19:26.970Z,22.78
2019-04-19T14:21:57.627Z,22.79
2019-04-19T14:24:29.272Z,22.80
2019-04-19T14:27:01.090Z,22.79
2019-04-19T14:29:33.007Z,22.79
2019-04-19T14:32:03.576Z,22.77
2019-04-19T14:34:35.349Z,22.85
2019-04-19T14:37:07.759Z,22.94
2019-04-19T14:39:40.433Z,22.99
2019-04-19T14:42:11.777Z,23.08
2019-04-19T14:44:43.226Z,23.08
2019-04-19T14:47:14.897Z,23.15
2019-04-19T14:49:45.555Z,23.24
2019-04-19T14:52:16.254Z,23.28
2019-04-19T14:54:48.082Z,23.35
2019-04-19T14:57:21.442Z,23.39
2019-04-19T14:59:51.182Z,23.32
2019-04-19T15:02:31.552Z,23.28
2019-04-19T15:05:05.539Z,23.37
2019-04-19T15:07:36.542Z,23.46
2019-04-19T15:10:09.194Z,23.50
2019-04-19T15:12:40.706Z,23.56
2019-04-19T15:15:14.495Z,23.62
2019-04-19T15:17:47.291Z,23.72
2019-04-19T15:20:20.154Z,23.72
2019-04-19T15:22:50.781Z,23.73
2019-04-19T15:25:23.644Z,23.78
2019-04-19T15:27:54.931Z,23.80
2019-04-19T15:30:25.835Z,23.82
2019-04-19T15:32:56.405Z,23.82
2019-04-19T15:35:27.780Z,23.93
2019-04-19T15:37:58.369Z,23.96
2019-04-19T15:40:30.090Z,23.95
2019-04-19T15:43:01.108Z,23.88
2019-04-19T15:45:32.145Z,23.86
2019-04-19T15:48:02.737Z,23.85
2019-04-19T15:50:35.946Z,23.76
2019-04-19T15:53:06.653Z,23.69
2019-04-19T15:55:37.871Z,23.75
2019-04-19T15:58:08.637Z,23.63
2019-04-19T16:00:52.783Z,23.56
2019-04-19T16:03:47.822Z,23.54
2019-04-19T16:06:36.284Z,23.50
2019-04-19T16:09:29.195Z,23.46
2019-04-19T16:12:03.627Z,23.47
2019-04-19T16:14:34.155Z,23.44
2019-04-19T16:17:05.677Z,23.43
2019-04-19T16:19:36.481Z,23.40
2019-04-19T16:22:07.627Z,23.34
2019-04-19T16:24:41.103Z,23.30
2019-04-19T16:27:11.747Z,23.27
2019-04-19T16:29:49.160Z,23.21
2019-04-19T16:32:14.813Z,23.16
2019-04-19T16:34:45.421Z,23.11
2019-04-19T16:37:16.723Z,23.08
2019-04-19T16:39:48.285Z,23.07
2019-04-19T16:42:19.030Z,23.00
2019-04-19T16:44:49.891Z,22.93
2019-04-19T16:47:21.686Z,22.86
2019-04-19T16:49:54.347Z,22.82
2019-04-19T16:52:24.822Z,22.77
2019-04-19T16:54:58.480Z,22.71
2019-04-19T16:57:30.427Z,22.69
2019-04-19T17:00:00.051Z,22.61
2019-04-19T17:02:31.103Z,22.55
2019-04-19T17:05:08.569Z,22.46
2019-04-19T17:07:39.677Z,22.44
2019-04-19T17:10:11.735Z,22.37
2019-04-19T17:12:47.778Z,22.31
2019-04-19T17:15:37.004Z,22.20
2019-04-19T17:18:20.728Z,22.16
2019-04-19T17:20:57.688Z,22.10
2019-04-19T17:23:30.721Z,21.96
2019-04-19T17:26:01.422Z,21.92
2019-04-19T17:28:32.911Z,21.90
2019-04-19T17:31:04.351Z,21.88
2019-04-19T17:33:35.903Z,21.85
2019-04-19T17:36:06.580Z,21.76
2019-04-19T17:38:46.340Z,21.71
2019-04-19T17:41:14.526Z,21.64
2019-04-19T17:43:47.864Z,21.59
2019-04-19T17:46:20.218Z,21.54
2019-04-19T17:48:51.131Z,21.53
2019-04-19T17:51:21.971Z,21.42
2019-04-19T17:53:54.400Z,21.34
2019-04-19T17:56:27.186Z,21.29
2019-04-19T17:58:58.225Z,21.22
2019-04-19T18:01:28.880Z,21.17
2019-04-19T18:04:00.748Z,21.08
2019-04-19T18:06:34.504Z,20.94
2019-04-19T18:09:14.132Z,20.81
2019-04-19T18:11:41.449Z,20.62
2019-04-19T18:14:12.150Z,20.48
2019-04-19T18:16:42.899Z,20.33
2019-04-19T18:19:16.688Z,20.17
2019-04-19T18:21:46.108Z,20.00
2019-04-19T18:24:22.863Z,19.83
2019-04-19T18:26:50.186Z,19.66
2019-04-19T18:29:23.913Z,19.41
2019-04-19T18:32:06.052Z,19.37
2019-04-19T18:34:45.320Z,19.25
2019-04-19T18:37:17.794Z,19.13
2019-04-19T18:39:48.174Z,19.08
2019-04-19T18:42:19.897Z,19.02
2019-04-19T18:44:55.084Z,18.97
2019-04-19T18:47:22.934Z,18.84
2019-04-19T18:49:53.834Z,18.64
2019-04-19T18:52:37.250Z,18.40
2019-04-19T18:55:03.351Z,18.35
2019-04-19T18:57:34.020Z,18.26
2019-04-19T19:00:02.244Z,18.22
2019-04-19T19:02:34.279Z,18.15
2019-04-19T19:05:08.423Z,17.96
2019-04-19T19:07:38.875Z,17.81
2019-04-19T19:10:21.119Z,17.68
2019-04-19T19:12:49.307Z,17.61
2019-04-19T19:15:18.658Z,17.54
2019-04-19T19:17:54.347Z,17.43
2019-04-19T19:20:27.409Z,17.35
2019-04-19T19:23:09.270Z,17.28
2019-04-19T19:25:40.857Z,17.23
2019-04-19T19:28:06.744Z,17.11
2019-04-19T19:30:38.787Z,16.91
2019-04-19T19:33:15.267Z,16.81
2019-04-19T19:35:47.707Z,16.73
2019-04-19T19:38:19.781Z,16.73
2019-04-19T19:40:59.781Z,16.43
2019-04-19T19:43:35.692Z,16.42
2019-04-19T19:46:11.757Z,16.30
2019-04-19T19:48:57.730Z,16.21
2019-04-19T19:51:17.576Z,16.13
2019-04-19T19:54:02.468Z,15.96
2019-04-19T19:56:30.601Z,15.92
2019-04-19T19:58:43.820Z,15.73
2019-04-19T20:01:23.629Z,15.76
2019-04-19T20:03:48.697Z,15.63
2019-04-19T20:06:20.228Z,15.60
2019-04-19T20:08:49.732Z,15.61
2019-04-19T20:11:26.429Z,15.48
2019-04-19T20:13:57.368Z,15.47
2019-04-19T20:16:29.930Z,15.39
2019-04-19T20:19:01.743Z,15.34
2019-04-19T20:21:32.387Z,15.13
2019-04-19T20:24:14.154Z,15.13
2019-04-19T20:26:51.549Z,15.14
2019-04-19T20:29:20.293Z,15.13
2019-04-19T20:31:44.211Z,15.07
2019-04-19T20:34:22.795Z,15.01
2019-04-19T20:36:47.496Z,14.90
2019-04-19T20:39:24.981Z,14.88
2019-04-19T20:42:00.156Z,14.74
2019-04-19T20:44:41.929Z,14.54
2019-04-19T20:47:02.142Z,14.45
2019-04-19T20:49:36.848Z,14.44
2019-04-19T20:52:14.538Z,14.38
2019-04-19T20:54:58.946Z,14.30
2019-04-19T20:57:50.102Z,14.29
2019-04-19T21:00:14.510Z,14.25
2019-04-19T21:02:45.845Z,14.22
2019-04-19T21:05:17.698Z,14.11
2019-04-19T21:07:53.946Z,14.03
2019-04-19T21:10:22.170Z,13.80
2019-04-19T21:13:01.377Z,13.78
2019-04-19T21:15:33.168Z,13.75
2019-04-19T21:17:59.183Z,13.65
2019-04-19T21:20:31.217Z,13.66
2019-04-19T21:23:07.927Z,13.61
2019-04-19T21:25:44.175Z,13.44
2019-04-19T21:28:06.761Z,13.47
2019-04-19T21:30:39.172Z,13.32
2019-04-19T21:33:13.471Z,13.25
2019-04-19T21:35:48.474Z,13.26
2019-04-19T21:38:19.278Z,13.16
2019-04-19T21:40:48.219Z,13.08
2019-04-19T21:43:23.416Z,13.03
2019-04-19T21:45:53.551Z,12.91
2019-04-19T21:48:31.638Z,12.87
2019-04-19T21:50:58.255Z,12.79
2019-04-19T21:53:29.904Z,12.82
2019-04-19T21:56:05.728Z,12.85
2019-04-19T21:58:36.148Z,12.74
2019-04-19T22:01:15.087Z,12.69
2019-04-19T22:03:49.392Z,12.69
2019-04-19T22:06:23.089Z,12.60
2019-04-19T22:08:50.359Z,12.58
2019-04-19T22:11:25.078Z,12.61
2019-04-19T22:13:55.687Z,12.52
2019-04-19T22:16:31.717Z,12.44
2019-04-19T22:18:59.376Z,12.39
2019-04-19T22:21:38.560Z,12.31
2019-04-19T22:24:04.561Z,12.35
2019-04-19T22:26:39.957Z,12.25
2019-04-19T22:29:07.674Z,12.08
2019-04-19T22:31:39.439Z,12.12
2019-04-19T22:34:12.886Z,12.03
2019-04-19T22:36:48.525Z,11.96
2019-04-19T22:39:25.632Z,11.84
2019-04-19T22:41:57.047Z,11.75
2019-04-19T22:44:27.760Z,11.67
2019-04-19T22:46:59.749Z,11.61
2019-04-19T22:49:34.020Z,11.60
2019-04-19T22:52:02.805Z,11.66
2019-04-19T22:54:33.395Z,11.60
2019-04-19T22:57:11.980Z,11.53
2019-04-19T22:59:36.297Z,11.51
2019-04-19T23:02:37.280Z,11.48
2019-04-19T23:05:09.167Z,11.46
2019-04-19T23:07:45.454Z,11.46
2019-04-19T23:10:14.865Z,11.35
2019-04-19T23:12:45.682Z,11.16
2019-04-19T23:15:23.309Z,11.05
2019-04-19T23:17:48.647Z,11.12
2019-04-19T23:20:22.914Z,11.09
2019-04-19T23:22:51.544Z,10.97
2019-04-19T23:25:28.626Z,10.98
2019-04-19T23:28:08.062Z,11.03
2019-04-19T23:30:29.638Z,10.97
2019-04-19T23:33:05.758Z,10.86
2019-04-19T23:35:35.053Z,10.79
2019-04-19T23:38:05.212Z,10.77
2019-04-19T23:40:38.967Z,10.70
2019-04-19T23:43:08.253Z,10.74
2019-04-19T23:45:43.848Z,10.74
2019-04-19T23:48:12.892Z,10.72
2019-04-19T23:50:44.125Z,10.72
2019-04-19T23:53:14.821Z,10.64
2019-04-19T23:55:46.689Z,10.62
2019-04-19T23:58:26.268Z,10.58
